createdAt,value
2022-12-28T00:02:16.551Z,-3.10
2022-12-28T00:04:43.779Z,-3.10
2022-12-28T00:07:10.495Z,-3.10
2022-12-28T00:09:37.321Z,-3.10
2022-12-28T00:12:04.349Z,-3.10
2022-12-28T00:14:31.215Z,-3.10
2022-12-28T00:16:58.023Z,-3.10
2022-12-28T00:19:24.863Z,-3.20
2022-12-28T00:21:54.152Z,-3.20
2022-12-28T00:24:23.269Z,-3.30
2022-12-28T00:26:51.070Z,-3.30
2022-12-28T00:29:18.954Z,-3.30
2022-12-28T00:31:46.247Z,-3.30
2022-12-28T00:34:13.740Z,-3.20
2022-12-28T00:37:10.161Z,-3.20
2022-12-28T00:39:27.333Z,-3.20
2022-12-28T00:41:54.088Z,-3.20
2022-12-28T00:44:20.827Z,-3.20
2022-12-28T00:46:47.671Z,-3.20
2022-12-28T00:49:14.410Z,-3.20
2022-12-28T00:51:41.157Z,-3.30
2022-12-28T00:54:09.298Z,-3.30
2022-12-28T00:56:36.211Z,-3.30
2022-12-28T00:59:03.081Z,-3.20
2022-12-28T01:01:30.274Z,-3.30
2022-12-28T01:03:58.061Z,-3.20
2022-12-28T01:06:25.687Z,-3.20
2022-12-28T01:08:52.588Z,-3.20
2022-12-28T01:11:25.970Z,-3.20
2022-12-28T01:13:54.932Z,-3.20
2022-12-28T01:16:42.051Z,-3.20
2022-12-28T01:19:11.121Z,-3.20
2022-12-28T01:21:37.985Z,-3.20
2022-12-28T01:24:07.787Z,-3.10
2022-12-28T01:26:35.014Z,-3.20
2022-12-28T01:29:01.978Z,-3.10
2022-12-28T01:31:28.898Z,-3.10
2022-12-28T01:33:55.999Z,-3.10
2022-12-28T01:36:28.441Z,-3.10
2022-12-28T01:38:57.286Z,-3.10
2022-12-28T01:41:25.128Z,-3.00
2022-12-28T01:43:54.688Z,-3.00
2022-12-28T01:46:36.225Z,-3.00
2022-12-28T01:49:11.983Z,-3.00
2022-12-28T01:51:48.027Z,-3.00
2022-12-28T01:54:15.509Z,-3.00
2022-12-28T01:56:44.011Z,-3.00
2022-12-28T01:59:12.111Z,-3.00
2022-12-28T02:01:39.541Z,-2.90
2022-12-28T02:04:06.478Z,-3.00
2022-12-28T02:06:33.313Z,-2.90
2022-12-28T02:09:13.241Z,-2.90
2022-12-28T02:11:44.080Z,-2.80
2022-12-28T02:14:13.401Z,-2.90
2022-12-28T02:16:40.246Z,-2.90
2022-12-28T02:19:12.094Z,-2.90
2022-12-28T02:21:49.051Z,-2.80
2022-12-28T02:24:47.257Z,-2.80
2022-12-28T02:27:35.717Z,-2.90
2022-12-28T02:30:05.985Z,-2.90
2022-12-28T02:32:57.150Z,-2.90
2022-12-28T02:35:23.881Z,-2.80
2022-12-28T02:37:59.262Z,-2.80
2022-12-28T02:40:37.985Z,-2.80
2022-12-28T02:43:05.021Z,-2.80
2022-12-28T02:46:07.925Z,-2.80
2022-12-28T02:49:04.291Z,-2.80
2022-12-28T02:51:57.787Z,-2.80
2022-12-28T02:55:04.996Z,-2.80
2022-12-28T02:57:43.397Z,-2.80
2022-12-28T03:00:18.028Z,-2.70
2022-12-28T03:03:03.366Z,-2.70
2022-12-28T03:05:58.123Z,-2.70
2022-12-28T03:08:53.513Z,-2.70
2022-12-28T03:11:26.354Z,-2.70
2022-12-28T03:13:59.655Z,-2.60
2022-12-28T03:16:59.837Z,-2.60
2022-12-28T03:19:52.500Z,-2.60
2022-12-28T03:22:40.614Z,-2.60
2022-12-28T03:25:32.834Z,-2.60
2022-12-28T03:28:20.018Z,-2.60
2022-12-28T03:31:07.697Z,-2.60
2022-12-28T03:33:45.955Z,-2.60
2022-12-28T03:36:20.358Z,-2.70
2022-12-28T03:39:03.541Z,-2.70
2022-12-28T03:41:39.102Z,-2.70
2022-12-28T03:44:16.242Z,-2.60
2022-12-28T03:46:49.493Z,-2.60
2022-12-28T03:49:16.616Z,-2.60
2022-12-28T03:51:45.488Z,-2.60
2022-12-28T03:54:16.094Z,-2.60
2022-12-28T03:56:49.179Z,-2.60
2022-12-28T03:59:16.708Z,-2.60
2022-12-28T04:01:43.896Z,-2.60
2022-12-28T04:04:11.496Z,-2.50
2022-12-28T04:06:38.309Z,-2.50
2022-12-28T04:09:06.370Z,-2.50
2022-12-28T04:11:33.535Z,-2.50
2022-12-28T04:14:03.178Z,-2.50
2022-12-28T04:16:33.660Z,-2.40
2022-12-28T04:19:00.351Z,-2.40
2022-12-28T04:21:27.055Z,-2.40
2022-12-28T04:23:53.877Z,-2.40
2022-12-28T04:26:21.095Z,-2.30
2022-12-28T04:28:47.877Z,-2.30
2022-12-28T04:31:14.740Z,-2.30
2022-12-28T04:33:41.677Z,-2.30
2022-12-28T04:36:14.255Z,-2.20
2022-12-28T04:38:41.694Z,-2.20
2022-12-28T04:41:10.413Z,-2.20
2022-12-28T04:43:37.383Z,-2.20
2022-12-28T04:46:06.649Z,-2.20
2022-12-28T04:48:34.304Z,-2.20
2022-12-28T04:51:10.775Z,-2.20
2022-12-28T04:53:41.593Z,-2.10
2022-12-28T04:56:09.925Z,-2.10
2022-12-28T04:58:37.663Z,-2.00
2022-12-28T05:01:06.592Z,-2.00
2022-12-28T05:03:34.668Z,-2.00
2022-12-28T05:06:07.508Z,-2.00
2022-12-28T05:08:35.889Z,-2.00
2022-12-28T05:11:07.888Z,-2.00
2022-12-28T05:13:35.150Z,-1.90
2022-12-28T05:16:03.505Z,-1.90
2022-12-28T05:18:30.700Z,-1.90
2022-12-28T05:21:01.230Z,-1.90
2022-12-28T05:23:31.689Z,-1.90
2022-12-28T05:25:58.825Z,-1.90
2022-12-28T05:28:26.367Z,-1.90
2022-12-28T05:30:53.198Z,-1.90
2022-12-28T05:33:19.928Z,-1.80
2022-12-28T05:35:46.712Z,-1.80
2022-12-28T05:38:13.481Z,-1.80
2022-12-28T05:40:40.218Z,-1.80
2022-12-28T05:43:07.001Z,-1.80
2022-12-28T05:45:33.797Z,-1.80
2022-12-28T05:48:00.523Z,-1.80
2022-12-28T05:50:27.355Z,-1.80
2022-12-28T05:52:54.171Z,-1.70
2022-12-28T05:55:20.963Z,-1.70
2022-12-28T05:57:47.743Z,-1.70
2022-12-28T06:00:14.797Z,-1.60
2022-12-28T06:02:41.686Z,-1.60
2022-12-28T06:05:08.869Z,-1.60
2022-12-28T06:07:35.644Z,-1.60
2022-12-28T06:10:02.382Z,-1.60
2022-12-28T06:12:29.159Z,-1.50
2022-12-28T06:14:55.897Z,-1.50
2022-12-28T06:17:22.726Z,-1.50
2022-12-28T06:19:49.537Z,-1.50
2022-12-28T06:22:16.273Z,-1.50
2022-12-28T06:24:43.104Z,-1.50
2022-12-28T06:27:09.800Z,-1.50
2022-12-28T06:29:36.532Z,-1.50
2022-12-28T06:32:03.472Z,-1.50
2022-12-28T06:34:30.358Z,-1.40
2022-12-28T06:36:59.853Z,-1.40
2022-12-28T06:39:26.627Z,-1.40
2022-12-28T06:41:56.456Z,-1.40
2022-12-28T06:44:23.198Z,-1.40
2022-12-28T06:46:49.881Z,-1.40
2022-12-28T06:49:16.592Z,-1.40
2022-12-28T06:51:43.352Z,-1.40
2022-12-28T06:54:10.326Z,-1.30
2022-12-28T06:56:37.778Z,-1.30
2022-12-28T06:59:04.956Z,-1.30
2022-12-28T07:01:35.124Z,-1.30
2022-12-28T07:04:03.651Z,-1.30
2022-12-28T07:06:34.088Z,-1.30
2022-12-28T07:09:03.030Z,-1.30
2022-12-28T07:11:30.075Z,-1.20
2022-12-28T07:13:57.166Z,-1.20
2022-12-28T07:16:27.046Z,-1.10
2022-12-28T07:18:53.954Z,-1.10
2022-12-28T07:21:24.142Z,-1.10
2022-12-28T07:23:52.681Z,-1.10
2022-12-28T07:26:22.036Z,-1.10
2022-12-28T07:28:51.418Z,-1.10
2022-12-28T07:31:20.671Z,-1.00
2022-12-28T07:33:48.649Z,-1.00
2022-12-28T07:36:17.401Z,-1.00
2022-12-28T07:38:44.550Z,-1.00
2022-12-28T07:41:13.835Z,-0.90
2022-12-28T07:43:40.857Z,-0.90
2022-12-28T07:46:13.265Z,-0.80
2022-12-28T07:48:41.322Z,-0.80
2022-12-28T07:51:10.615Z,-0.70
2022-12-28T07:53:38.231Z,-0.70
2022-12-28T07:56:06.277Z,-0.60
2022-12-28T07:58:33.591Z,-0.60
2022-12-28T08:01:04.732Z,-0.50
2022-12-28T08:03:32.086Z,-0.50
2022-12-28T08:06:05.054Z,-0.40
2022-12-28T08:08:34.992Z,-0.40
2022-12-28T08:11:06.812Z,-0.30
2022-12-28T08:13:38.661Z,-0.20
2022-12-28T08:16:06.822Z,-0.10
2022-12-28T08:18:34.018Z,-0.10
2022-12-28T08:21:02.808Z,-0.10
2022-12-28T08:23:30.969Z,0.00
2022-12-28T08:26:04.866Z,0.10
2022-12-28T08:28:31.625Z,0.20
2022-12-28T08:30:58.445Z,0.20
2022-12-28T08:33:25.139Z,0.30
2022-12-28T08:35:51.910Z,0.30
2022-12-28T08:38:18.651Z,0.40
2022-12-28T08:40:57.396Z,0.60
2022-12-28T08:43:25.151Z,0.70
2022-12-28T08:46:22.367Z,0.70
2022-12-28T08:48:50.363Z,0.90
2022-12-28T08:51:22.016Z,0.90
2022-12-28T08:53:49.667Z,1.00
2022-12-28T08:56:43.871Z,1.10
2022-12-28T08:59:14.924Z,1.10
2022-12-28T09:01:44.603Z,1.20
2022-12-28T09:04:16.494Z,1.20
2022-12-28T09:06:43.336Z,1.30
2022-12-28T09:09:14.081Z,1.50
2022-12-28T09:11:41.641Z,1.70
2022-12-28T09:14:15.690Z,1.90
2022-12-28T09:16:45.669Z,2.10
2022-12-28T09:19:14.641Z,2.30
2022-12-28T09:21:42.345Z,2.40
2022-12-28T09:24:09.487Z,2.40
2022-12-28T09:26:38.241Z,2.60
2022-12-28T09:29:08.990Z,2.80
2022-12-28T09:31:37.379Z,2.90
2022-12-28T09:36:58.186Z,3.00
2022-12-28T09:39:25.249Z,3.10
2022-12-28T09:41:59.803Z,3.10
2022-12-28T09:44:41.779Z,3.30
2022-12-28T09:47:09.497Z,3.40
2022-12-28T09:49:44.940Z,3.50
2022-12-28T09:52:14.451Z,3.50
2022-12-28T09:54:41.844Z,3.60
2022-12-28T09:57:15.531Z,3.80
2022-12-28T09:59:43.599Z,3.80
2022-12-28T10:02:23.361Z,3.90
2022-12-28T10:04:50.904Z,4.10
2022-12-28T10:07:18.385Z,4.30
2022-12-28T10:09:45.920Z,4.40
2022-12-28T10:12:20.265Z,4.50
2022-12-28T10:14:49.163Z,4.60
2022-12-28T10:17:17.933Z,4.70
2022-12-28T10:19:49.063Z,4.80
2022-12-28T10:22:20.952Z,4.90
2022-12-28T10:24:48.258Z,5.00
2022-12-28T10:27:30.218Z,5.20
2022-12-28T10:30:00.208Z,5.10
2022-12-28T10:32:27.040Z,5.10
2022-12-28T10:34:59.508Z,5.20
2022-12-28T10:37:30.210Z,5.30
2022-12-28T10:40:09.631Z,5.40
2022-12-28T10:42:43.528Z,5.40
2022-12-28T10:45:38.070Z,5.60
2022-12-28T10:48:13.261Z,5.80
2022-12-28T10:50:55.724Z,5.80
2022-12-28T10:53:31.147Z,6.00
2022-12-28T10:56:02.041Z,6.30
2022-12-28T11:01:15.547Z,6.30
2022-12-28T11:03:21.955Z,6.30
2022-12-28T11:03:56.761Z,6.40
2022-12-28T11:06:57.009Z,6.10
2022-12-28T11:09:26.759Z,6.30
2022-12-28T11:11:56.329Z,6.50
2022-12-28T11:14:34.957Z,6.80
2022-12-28T11:17:18.027Z,7.10
2022-12-28T11:19:45.140Z,7.30
2022-12-28T11:22:13.341Z,7.60
2022-12-28T11:24:40.853Z,7.70
2022-12-28T11:27:13.508Z,7.80
2022-12-28T11:29:44.734Z,8.10
2022-12-28T11:32:36.273Z,8.10
2022-12-28T11:35:03.579Z,8.60
2022-12-28T11:37:30.380Z,8.80
2022-12-28T11:39:58.806Z,8.90
2022-12-28T11:42:55.875Z,9.20
2022-12-28T11:45:51.114Z,9.10
2022-12-28T11:48:59.831Z,8.60
2022-12-28T11:51:38.393Z,8.00
2022-12-28T11:54:25.104Z,7.90
2022-12-28T11:56:51.805Z,7.70
2022-12-28T11:59:25.628Z,7.80
2022-12-28T12:02:03.757Z,7.50
2022-12-28T12:04:43.823Z,7.40
2022-12-28T12:07:30.626Z,7.20
2022-12-28T12:10:13.911Z,7.30
2022-12-28T12:12:49.688Z,7.40
2022-12-28T12:15:20.570Z,7.60
2022-12-28T12:17:53.022Z,7.90
2022-12-28T12:20:44.742Z,8.20
2022-12-28T12:23:38.976Z,8.70
2022-12-28T12:26:44.981Z,9.10
2022-12-28T12:29:39.471Z,9.30
2022-12-28T12:32:23.440Z,8.90
2022-12-28T12:34:54.521Z,8.70
2022-12-28T12:37:56.844Z,8.40
2022-12-28T12:40:45.213Z,8.30
2022-12-28T12:43:29.483Z,8.00
2022-12-28T12:46:30.292Z,7.70
2022-12-28T12:49:21.611Z,7.80
2022-12-28T12:52:14.302Z,7.70
2022-12-28T12:55:17.694Z,7.70
2022-12-28T12:58:07.680Z,7.60
2022-12-28T13:00:48.685Z,7.40
2022-12-28T13:03:15.767Z,7.40
2022-12-28T13:05:49.558Z,7.40
2022-12-28T13:08:24.070Z,7.50
2022-12-28T13:10:51.777Z,7.50
2022-12-28T13:13:26.514Z,7.60
2022-12-28T13:15:57.984Z,7.80
2022-12-28T13:18:55.295Z,8.20
2022-12-28T13:21:20.473Z,8.60
2022-12-28T13:23:47.983Z,8.50
2022-12-28T13:26:16.509Z,8.30
2022-12-28T13:29:01.041Z,8.10
2022-12-28T13:31:37.792Z,7.90
2022-12-28T13:34:05.974Z,7.70
2022-12-28T13:36:32.804Z,7.70
2022-12-28T13:39:03.997Z,7.70
2022-12-28T13:41:34.739Z,7.60
2022-12-28T13:44:33.749Z,7.50
2022-12-28T13:47:28.249Z,7.50
2022-12-28T13:50:09.638Z,7.50
2022-12-28T13:52:38.072Z,7.50
2022-12-28T13:55:10.538Z,7.50
2022-12-28T13:57:48.475Z,7.50
2022-12-28T14:00:22.795Z,7.40
2022-12-28T14:02:52.255Z,7.40
2022-12-28T14:05:30.463Z,7.40
2022-12-28T14:07:59.155Z,7.40
2022-12-28T14:10:27.282Z,7.30
2022-12-28T14:12:54.799Z,7.40
2022-12-28T14:15:21.873Z,7.40
2022-12-28T14:17:51.435Z,7.20
2022-12-28T14:20:18.781Z,7.00
2022-12-28T14:22:45.837Z,7.00
2022-12-28T14:25:15.821Z,6.90
2022-12-28T14:28:03.697Z,6.80
2022-12-28T14:30:43.389Z,6.70
2022-12-28T14:33:24.402Z,6.60
2022-12-28T14:35:55.105Z,6.60
2022-12-28T14:38:35.219Z,6.50
2022-12-28T14:41:04.061Z,6.40
2022-12-28T14:43:36.074Z,6.30
2022-12-28T14:46:16.502Z,6.20
2022-12-28T14:48:45.425Z,6.10
2022-12-28T14:51:14.925Z,6.10
2022-12-28T14:53:42.378Z,6.10
2022-12-28T14:56:13.525Z,6.10
2022-12-28T14:58:51.066Z,6.00
2022-12-28T15:01:20.807Z,5.90
2022-12-28T15:04:03.654Z,5.80
2022-12-28T15:06:32.936Z,5.90
2022-12-28T15:09:01.386Z,5.90
2022-12-28T15:11:31.225Z,5.80
2022-12-28T15:13:58.292Z,5.70
2022-12-28T15:16:25.276Z,5.60
2022-12-28T15:18:53.011Z,5.60
2022-12-28T15:21:23.771Z,5.60
2022-12-28T15:23:55.239Z,5.50
2022-12-28T15:26:24.035Z,5.30
2022-12-28T15:28:51.578Z,5.40
2022-12-28T15:31:20.076Z,5.40
2022-12-28T15:33:47.833Z,5.40
2022-12-28T15:36:19.574Z,5.30
2022-12-28T15:38:47.837Z,5.10
2022-12-28T15:41:33.703Z,5.10
2022-12-28T15:44:00.504Z,4.90
2022-12-28T15:46:27.478Z,4.80
2022-12-28T15:48:54.422Z,4.60
2022-12-28T15:51:21.235Z,4.60
2022-12-28T15:53:48.084Z,4.50
2022-12-28T15:56:29.364Z,4.40
2022-12-28T15:58:58.260Z,4.30
2022-12-28T16:01:27.558Z,4.20
2022-12-28T16:03:55.985Z,4.20
2022-12-28T16:06:23.872Z,4.10
2022-12-28T16:08:54.164Z,4.00
2022-12-28T16:11:21.951Z,4.00
2022-12-28T16:14:00.068Z,3.90
2022-12-28T16:16:29.833Z,3.80
2022-12-28T16:18:57.906Z,3.70
2022-12-28T16:21:26.261Z,3.70
2022-12-28T16:23:53.409Z,3.60
2022-12-28T16:26:23.605Z,3.60
2022-12-28T16:28:50.708Z,3.50
2022-12-28T16:31:25.126Z,3.50
2022-12-28T16:34:15.127Z,3.50
2022-12-28T16:36:42.749Z,3.40
2022-12-28T16:39:13.333Z,3.40
2022-12-28T16:41:40.318Z,3.30
2022-12-28T16:44:12.640Z,3.30
2022-12-28T16:46:39.447Z,3.20
2022-12-28T16:49:06.300Z,3.10
2022-12-28T16:51:33.089Z,3.10
2022-12-28T16:53:59.912Z,3.10
2022-12-28T16:56:26.748Z,3.00
2022-12-28T16:58:57.536Z,2.90
2022-12-28T17:01:24.534Z,2.80
2022-12-28T17:03:51.582Z,2.80
2022-12-28T17:06:18.765Z,2.90
2022-12-28T17:08:45.799Z,2.80
2022-12-28T17:11:13.039Z,2.80
2022-12-28T17:13:40.484Z,2.70
2022-12-28T17:16:08.842Z,2.70
2022-12-28T17:18:36.102Z,2.70
2022-12-28T17:21:06.888Z,2.60
2022-12-28T17:23:34.022Z,2.50
2022-12-28T17:26:00.893Z,2.50
2022-12-28T17:28:27.734Z,2.50
2022-12-28T17:31:10.593Z,2.40
2022-12-28T17:33:40.083Z,2.40
2022-12-28T17:36:07.945Z,2.40
2022-12-28T17:38:36.913Z,2.30
2022-12-28T17:41:11.133Z,2.30
2022-12-28T17:43:38.075Z,2.30
2022-12-28T17:46:06.333Z,2.20
2022-12-28T17:48:33.177Z,2.20
2022-12-28T17:51:00.160Z,2.20
2022-12-28T17:53:27.086Z,2.10
2022-12-28T17:55:53.862Z,2.10
2022-12-28T17:58:20.744Z,2.10
2022-12-28T18:00:52.663Z,2.00
2022-12-28T18:03:19.410Z,2.00
2022-12-28T18:05:51.827Z,2.00
2022-12-28T18:08:19.647Z,2.00
2022-12-28T18:10:47.024Z,2.00
2022-12-28T18:13:15.028Z,1.90
2022-12-28T18:15:44.089Z,1.90
2022-12-28T18:18:13.629Z,1.90
2022-12-28T18:20:40.532Z,1.90
2022-12-28T18:23:07.469Z,1.80
2022-12-28T18:25:34.309Z,1.70
2022-12-28T18:28:01.137Z,1.70
2022-12-28T18:30:28.036Z,1.60
2022-12-28T18:32:54.880Z,1.60
2022-12-28T18:35:25.001Z,1.60
2022-12-28T18:37:51.832Z,1.60
2022-12-28T18:40:19.044Z,1.60
2022-12-28T18:42:45.733Z,1.50
2022-12-28T18:45:12.616Z,1.50
2022-12-28T18:47:39.417Z,1.50
2022-12-28T18:50:06.739Z,1.60
2022-12-28T18:52:36.012Z,1.60
2022-12-28T18:55:03.753Z,1.60
2022-12-28T18:57:30.764Z,1.50
2022-12-28T18:59:57.462Z,1.50
2022-12-28T19:02:24.429Z,1.50
2022-12-28T19:04:54.459Z,1.50
2022-12-28T19:07:21.273Z,1.40
2022-12-28T19:10:12.549Z,1.40
2022-12-28T19:12:41.381Z,1.40
2022-12-28T19:15:08.551Z,1.40
2022-12-28T19:17:35.508Z,1.40
2022-12-28T19:20:02.372Z,1.40
2022-12-28T19:22:30.040Z,1.40
2022-12-28T19:24:56.899Z,1.40
2022-12-28T19:27:23.649Z,1.30
2022-12-28T19:29:50.691Z,1.40
2022-12-28T19:32:17.534Z,1.40
2022-12-28T19:34:44.251Z,1.40
2022-12-28T19:37:11.055Z,1.40
2022-12-28T19:39:37.817Z,1.50
2022-12-28T19:42:04.715Z,1.40
2022-12-28T19:44:31.425Z,1.40
2022-12-28T19:46:58.848Z,1.40
2022-12-28T19:49:25.799Z,1.30
2022-12-28T19:51:52.551Z,1.30
2022-12-28T19:54:19.342Z,1.20
2022-12-28T19:56:46.115Z,1.20
2022-12-28T19:59:12.877Z,1.20
2022-12-28T20:01:39.715Z,1.10
2022-12-28T20:04:13.400Z,1.10
2022-12-28T20:06:43.159Z,1.20
2022-12-28T20:09:10.483Z,1.20
2022-12-28T20:11:38.225Z,1.30
2022-12-28T20:14:05.547Z,1.30
2022-12-28T20:16:34.211Z,1.30
2022-12-28T20:19:01.807Z,1.40
2022-12-28T20:21:28.996Z,1.60
2022-12-28T20:23:55.912Z,1.70
2022-12-28T20:26:25.011Z,1.90
2022-12-28T20:28:52.359Z,2.10
2022-12-28T20:31:19.346Z,2.10
2022-12-28T20:33:46.763Z,2.20
2022-12-28T20:36:22.560Z,2.10
2022-12-28T20:38:50.312Z,2.20
2022-12-28T20:41:38.121Z,2.40
2022-12-28T20:44:08.200Z,2.60
2022-12-28T20:46:35.574Z,2.70
2022-12-28T20:49:02.445Z,3.30
2022-12-28T20:51:29.388Z,3.20
2022-12-28T20:53:56.196Z,3.30
2022-12-28T20:56:23.169Z,3.30
2022-12-28T20:58:50.492Z,3.20
2022-12-28T21:01:18.086Z,3.30
2022-12-28T21:03:45.973Z,3.50
2022-12-28T21:06:13.260Z,3.60
2022-12-28T21:08:40.113Z,3.50
2022-12-28T21:11:07.164Z,3.60
2022-12-28T21:13:35.974Z,3.70
2022-12-28T21:16:06.073Z,3.70
2022-12-28T21:18:33.373Z,3.80
2022-12-28T21:21:01.225Z,3.90
2022-12-28T21:23:29.425Z,3.90
2022-12-28T21:26:07.621Z,4.00
2022-12-28T21:28:34.717Z,4.10
2022-12-28T21:31:04.906Z,4.10
2022-12-28T21:33:32.697Z,4.20
2022-12-28T21:36:05.027Z,4.20
2022-12-28T21:38:32.854Z,4.10
2022-12-28T21:41:02.035Z,4.30
2022-12-28T21:43:29.636Z,4.30
2022-12-28T21:46:08.249Z,4.20
2022-12-28T21:48:36.937Z,4.30
2022-12-28T21:51:28.184Z,4.40
2022-12-28T21:53:55.349Z,4.40
2022-12-28T21:56:22.194Z,4.30
2022-12-28T21:58:50.056Z,4.40
2022-12-28T22:01:36.344Z,4.50
2022-12-28T22:04:22.106Z,4.60
2022-12-28T22:06:48.950Z,4.50
2022-12-28T22:09:34.240Z,4.60
2022-12-28T22:12:19.979Z,4.60
2022-12-28T22:14:46.833Z,4.40
2022-12-28T22:17:14.635Z,4.40
2022-12-28T22:19:41.576Z,4.50
2022-12-28T22:22:08.421Z,4.40
2022-12-28T22:24:35.192Z,4.20
2022-12-28T22:27:01.947Z,4.20
2022-12-28T22:29:28.728Z,4.20
2022-12-28T22:31:55.540Z,4.10
2022-12-28T22:34:22.375Z,4.00
2022-12-28T22:36:49.151Z,3.90
2022-12-28T22:39:15.967Z,4.00
2022-12-28T22:41:42.701Z,4.10
2022-12-28T22:44:10.257Z,4.20
2022-12-28T22:46:37.111Z,4.30
2022-12-28T22:49:03.905Z,4.40
2022-12-28T22:51:30.701Z,4.30
2022-12-28T22:53:57.404Z,4.60
2022-12-28T22:56:24.187Z,4.60
2022-12-28T22:58:50.930Z,4.70
2022-12-28T23:01:19.537Z,4.80
2022-12-28T23:03:47.871Z,4.70
2022-12-28T23:06:17.149Z,4.70
2022-12-28T23:08:44.089Z,4.70
2022-12-28T23:11:32.788Z,4.60
2022-12-28T23:14:22.894Z,4.70
2022-12-28T23:16:50.041Z,4.60
2022-12-28T23:19:35.756Z,4.60
2022-12-28T23:22:22.774Z,4.60
2022-12-28T23:25:08.093Z,4.40
2022-12-28T23:27:40.587Z,4.40
2022-12-28T23:30:11.239Z,4.40
2022-12-28T23:32:38.052Z,4.40
2022-12-28T23:35:05.376Z,4.30
2022-12-28T23:37:32.180Z,4.30
2022-12-28T23:39:58.880Z,4.20
2022-12-28T23:42:25.661Z,4.10
2022-12-28T23:44:52.447Z,4.00
2022-12-28T23:47:20.475Z,4.00
2022-12-28T23:49:47.291Z,3.90
2022-12-28T23:52:14.078Z,3.90
2022-12-28T23:54:41.039Z,3.80
2022-12-28T23:57:07.755Z,3.70
2022-12-28T23:59:34.550Z,3.70
